createdAt,value
2019-04-26T13:53:54.504Z,18.20
2019-04-26T13:54:55.395Z,21.00
2019-04-26T13:55:54.420Z,23.30
2019-04-26T13:56:54.898Z,21.70
2019-04-26T13:57:55.971Z,23.70
2019-04-26T13:58:58.175Z,21.20
2019-04-26T13:59:55.336Z,23.40
2019-04-26T14:00:54.361Z,21.40
2019-04-26T14:01:54.241Z,20.40
2019-04-26T14:02:54.194Z,19.60
2019-04-26T14:03:54.191Z,18.00
2019-04-26T14:04:54.174Z,18.60
2019-04-26T14:05:54.156Z,17.90
2019-04-26T14:06:54.228Z,18.30
2019-04-26T14:07:55.408Z,17.90
2019-04-26T14:08:58.111Z,16.50
2019-04-26T14:09:55.910Z,16.80
2019-04-26T14:10:54.108Z,16.80
2019-04-26T14:11:54.122Z,17.80
2019-04-26T14:12:54.101Z,17.50
2019-04-26T14:13:55.431Z,17.40
2019-04-26T14:14:55.070Z,17.70
2019-04-26T14:15:54.066Z,17.40
2019-04-26T14:16:55.809Z,17.10
2019-04-26T14:17:54.089Z,19.00
2019-04-26T14:18:54.019Z,16.90
2019-04-26T14:19:53.998Z,16.70
2019-04-26T14:20:54.867Z,17.80
2019-04-26T14:21:53.995Z,17.30
2019-04-26T14:22:53.996Z,17.70
2019-04-26T14:23:53.966Z,17.50
2019-04-26T14:24:57.031Z,18.10
2019-04-26T14:25:55.569Z,18.40
2019-04-26T14:26:53.927Z,18.10
2019-04-26T14:27:53.928Z,17.90
2019-04-26T14:28:54.239Z,16.80
2019-04-26T14:29:54.905Z,17.20
2019-04-26T14:30:53.970Z,17.20
2019-04-26T14:31:53.961Z,16.20
2019-04-26T14:32:57.308Z,17.30
2019-04-26T14:33:53.855Z,14.90
2019-04-26T14:34:53.855Z,16.70
2019-04-26T14:35:53.863Z,17.80
2019-04-26T14:37:05.955Z,17.80
2019-04-26T14:37:54.925Z,19.20
2019-04-26T14:39:05.174Z,18.20
2019-04-26T14:39:55.299Z,17.60
2019-04-26T14:41:03.852Z,19.70
2019-04-26T14:41:57.129Z,19.70
2019-04-26T14:43:06.141Z,19.80
2019-04-26T14:43:56.683Z,20.70
2019-04-26T14:44:54.499Z,21.00
2019-04-26T14:45:56.083Z,23.40
2019-04-26T14:46:56.794Z,21.30
2019-04-26T14:47:53.755Z,21.50
2019-04-26T14:49:01.798Z,21.50
2019-04-26T14:49:57.764Z,20.60
2019-04-26T14:50:53.669Z,21.00
2019-04-26T14:51:56.069Z,21.40
2019-04-26T14:52:53.648Z,19.50
2019-04-26T14:53:53.639Z,19.50
2019-04-26T14:54:53.653Z,19.50
2019-04-26T14:55:54.694Z,19.10
2019-04-26T14:56:53.599Z,19.00
2019-04-26T14:57:54.088Z,18.90
2019-04-26T14:58:53.589Z,19.50
2019-04-26T14:59:53.564Z,19.70
2019-04-26T15:00:55.917Z,18.70
2019-04-26T15:01:53.579Z,18.70
2019-04-26T15:02:56.277Z,19.10
2019-04-26T15:03:57.158Z,19.20
2019-04-26T15:04:53.525Z,19.20
2019-04-26T15:05:54.036Z,19.30
2019-04-26T15:06:58.022Z,19.00
2019-04-26T15:07:54.473Z,19.60
2019-04-26T15:08:53.514Z,20.00
2019-04-26T15:09:53.454Z,19.20
2019-04-26T15:11:01.050Z,19.90
2019-04-26T15:12:00.956Z,19.10
2019-04-26T15:13:05.839Z,20.30
2019-04-26T15:13:54.435Z,19.50
2019-04-26T15:14:56.678Z,18.70
2019-04-26T15:15:53.394Z,20.10
2019-04-26T15:16:53.402Z,20.70
2019-04-26T15:17:59.295Z,19.50
2019-04-26T15:18:54.355Z,19.60
2019-04-26T15:19:53.843Z,19.10
2019-04-26T15:20:56.944Z,20.60
2019-04-26T15:21:54.350Z,19.60
2019-04-26T15:22:53.322Z,18.50
2019-04-26T15:23:55.297Z,20.50
2019-04-26T15:24:54.290Z,19.20
2019-04-26T15:25:53.308Z,18.60
2019-04-26T15:26:53.264Z,18.30
2019-04-26T15:27:53.255Z,18.90
2019-04-26T15:28:53.246Z,18.90
2019-04-26T15:29:53.259Z,19.00
2019-04-26T15:30:53.239Z,19.50
2019-04-26T15:31:53.798Z,18.60
2019-04-26T15:32:53.207Z,19.30
2019-04-26T15:33:53.208Z,19.50
2019-04-26T15:34:54.986Z,19.00
2019-04-26T15:35:53.174Z,18.50
2019-04-26T15:36:54.280Z,19.90
2019-04-26T15:37:53.519Z,20.30
2019-04-26T15:38:53.142Z,18.70
2019-04-26T15:39:56.775Z,18.50
2019-04-26T15:40:54.125Z,18.30
2019-04-26T15:41:54.409Z,19.30
2019-04-26T15:43:01.124Z,18.10
2019-04-26T15:43:54.081Z,17.10
2019-04-26T15:44:53.075Z,16.00
2019-04-26T15:45:53.092Z,15.70
2019-04-26T15:46:53.760Z,14.50
2019-04-26T15:47:53.064Z,13.60
2019-04-26T15:48:54.648Z,13.70
2019-04-26T15:49:53.012Z,12.80
2019-04-26T15:51:02.748Z,10.90
2019-04-26T15:51:56.399Z,11.20
2019-04-26T15:52:54.037Z,11.20
2019-04-26T15:53:53.132Z,11.00
2019-04-26T15:54:58.958Z,10.10
2019-04-26T15:55:54.034Z,9.70
2019-04-26T15:56:53.879Z,9.40
2019-04-26T15:57:53.141Z,9.50
2019-04-26T15:58:52.928Z,9.70
2019-04-26T15:59:54.405Z,9.00
2019-04-26T16:00:52.956Z,9.80
2019-04-26T16:01:52.936Z,10.40
2019-04-26T16:02:54.585Z,9.00
2019-04-26T16:03:53.136Z,9.50
2019-04-26T16:04:54.426Z,8.80
2019-04-26T16:05:52.840Z,8.30
2019-04-26T16:06:52.843Z,8.80
2019-04-26T16:07:53.013Z,8.50
2019-04-26T16:08:52.829Z,9.90
2019-04-26T16:09:55.872Z,9.60
2019-04-26T16:10:53.186Z,8.90
2019-04-26T16:11:55.170Z,8.70
2019-04-26T16:12:56.289Z,10.70
2019-04-26T16:13:55.485Z,10.30
2019-04-26T16:14:52.782Z,11.00
2019-04-26T16:15:52.731Z,8.10
2019-04-26T16:16:52.742Z,9.40
2019-04-26T16:17:52.806Z,8.40
2019-04-26T16:18:55.973Z,9.10
2019-04-26T16:19:56.085Z,9.00
2019-04-26T16:20:53.679Z,8.50
2019-04-26T16:21:55.311Z,8.10
2019-04-26T16:22:53.398Z,8.30
2019-04-26T16:23:55.250Z,8.60
2019-04-26T16:24:53.155Z,9.00
2019-04-26T16:25:52.661Z,8.30
2019-04-26T16:26:55.824Z,8.90
2019-04-26T16:27:52.616Z,7.70
2019-04-26T16:28:52.598Z,9.70
2019-04-26T16:29:58.290Z,8.40
2019-04-26T16:30:53.570Z,7.30
2019-04-26T16:31:52.976Z,7.70
2019-04-26T16:32:58.666Z,6.80
2019-04-26T16:33:53.541Z,7.50
2019-04-26T16:34:52.895Z,8.00
2019-04-26T16:35:52.558Z,8.60
2019-04-26T16:36:52.700Z,8.30
2019-04-26T16:37:52.502Z,8.10
2019-04-26T16:38:56.054Z,7.90
2019-04-26T16:39:52.517Z,7.70
2019-04-26T16:40:54.930Z,7.80
2019-04-26T16:41:52.528Z,7.50
2019-04-26T16:42:56.599Z,8.80
2019-04-26T16:43:54.669Z,8.00
2019-04-26T16:44:53.154Z,8.70
2019-04-26T16:45:54.274Z,7.60
2019-04-26T16:47:01.130Z,8.50
2019-04-26T16:47:53.463Z,7.50
2019-04-26T16:48:57.071Z,8.80
2019-04-26T16:49:54.642Z,7.70
2019-04-26T16:50:53.082Z,7.60
2019-04-26T16:52:01.482Z,7.70
2019-04-26T16:52:53.341Z,8.60
2019-04-26T16:54:06.312Z,7.80
2019-04-26T16:55:02.022Z,8.10
2019-04-26T16:55:53.429Z,12.30
2019-04-26T16:56:52.698Z,7.60
2019-04-26T16:57:57.948Z,7.70
2019-04-26T16:58:54.726Z,7.60
2019-04-26T17:00:57.647Z,7.30
2019-04-26T17:01:53.656Z,7.40
2019-04-26T17:02:52.752Z,6.80
2019-04-26T17:03:53.421Z,8.00
2019-04-26T17:04:53.404Z,6.90
2019-04-26T17:06:04.748Z,6.90
2019-04-26T17:06:53.185Z,9.40
2019-04-26T17:07:53.895Z,7.50
2019-04-26T17:09:00.219Z,6.20
2019-04-26T17:09:51.049Z,8.30
2019-04-26T17:09:58.206Z,7.20
2019-04-26T17:10:56.689Z,6.20
2019-04-26T17:11:53.190Z,5.90
2019-04-26T17:12:54.327Z,5.60
2019-04-26T17:13:56.771Z,6.80
2019-04-26T17:14:53.089Z,6.70
2019-04-26T17:15:58.007Z,6.20
2019-04-26T17:16:53.403Z,7.70
2019-04-26T17:17:52.669Z,6.70
2019-04-26T17:18:55.658Z,6.20
2019-04-26T17:19:53.122Z,7.40
2019-04-26T17:20:53.122Z,7.50
2019-04-26T17:21:56.529Z,7.30
2019-04-26T17:22:59.600Z,7.90
2019-04-26T17:23:55.096Z,10.30
2019-04-26T17:24:53.398Z,8.90
2019-04-26T17:25:55.218Z,8.90
2019-04-26T17:26:52.958Z,10.40
2019-04-26T17:27:52.916Z,7.80
2019-04-26T17:28:53.137Z,7.30
2019-04-26T17:29:52.731Z,12.20
2019-04-26T17:30:53.077Z,10.40
2019-04-26T17:31:52.266Z,9.10
2019-04-26T17:32:53.512Z,6.40
2019-04-26T17:33:51.896Z,8.50
2019-04-26T17:34:54.310Z,5.70
2019-04-26T17:35:51.860Z,5.60
2019-04-26T17:36:52.259Z,8.10
2019-04-26T17:37:51.837Z,6.50
2019-04-26T17:38:51.842Z,6.70
2019-04-26T17:39:55.273Z,6.70
2019-04-26T17:40:51.850Z,7.00
2019-04-26T17:41:54.215Z,9.50
2019-04-26T17:42:51.777Z,5.50
2019-04-26T17:43:56.026Z,5.70
2019-04-26T17:44:52.770Z,5.90
2019-04-26T17:45:51.757Z,5.60
2019-04-26T17:46:56.281Z,5.80
2019-04-26T17:47:53.053Z,5.50
2019-04-26T17:48:51.746Z,5.50
2019-04-26T17:49:52.453Z,9.00
2019-04-26T17:50:51.704Z,9.00
2019-04-26T17:51:57.724Z,7.30
2019-04-26T17:52:52.668Z,7.00
2019-04-26T17:54:18.479Z,9.50
2019-04-26T17:54:52.775Z,9.20
2019-04-26T17:55:54.751Z,5.30
2019-04-26T17:56:51.681Z,7.30
2019-04-26T17:57:52.545Z,5.80
2019-04-26T17:58:54.501Z,6.50
2019-04-26T17:59:51.718Z,6.60
2019-04-26T18:00:51.638Z,8.80
2019-04-26T18:02:00.138Z,6.70
2019-04-26T18:02:52.625Z,5.10
2019-04-26T18:03:55.633Z,8.20
2019-04-26T18:04:59.044Z,6.60
2019-04-26T18:05:57.104Z,7.50
2019-04-26T18:07:01.802Z,5.90
2019-04-26T18:07:58.409Z,7.10
2019-04-26T18:08:55.217Z,8.20
2019-04-26T18:09:52.523Z,5.70
2019-04-26T18:10:51.611Z,7.10
2019-04-26T18:11:55.247Z,8.00
2019-04-26T18:12:52.450Z,6.50
2019-04-26T18:13:52.312Z,7.60
2019-04-26T18:14:51.445Z,5.30
2019-04-26T18:15:52.854Z,6.60
2019-04-26T18:16:53.085Z,6.20
2019-04-26T18:17:51.608Z,7.70
2019-04-26T18:18:54.413Z,8.00
2019-04-26T18:19:51.423Z,7.40
2019-04-26T18:20:51.421Z,5.90
2019-04-26T18:21:56.528Z,9.10
2019-04-26T18:22:52.360Z,7.10
2019-04-26T18:23:54.359Z,7.30
2019-04-26T18:24:51.407Z,6.80
2019-04-26T18:25:52.685Z,7.80
2019-04-26T18:26:52.249Z,6.60
2019-04-26T18:27:53.512Z,6.00
2019-04-26T18:28:53.356Z,5.80
2019-04-26T18:29:53.159Z,6.70
2019-04-26T18:30:53.009Z,7.60
2019-04-26T18:31:53.589Z,6.10
2019-04-26T18:32:51.253Z,9.10
2019-04-26T18:33:54.752Z,7.40
2019-04-26T18:34:53.658Z,6.60
2019-04-26T18:35:55.907Z,5.90
2019-04-26T18:36:52.732Z,5.70
2019-04-26T18:37:51.187Z,7.50
2019-04-26T18:38:51.238Z,6.70
2019-04-26T18:39:51.168Z,7.10
2019-04-26T18:41:01.580Z,8.30
2019-04-26T18:41:53.669Z,7.10
2019-04-26T18:42:53.058Z,6.70
2019-04-26T18:43:55.573Z,7.00
2019-04-26T18:44:52.101Z,8.60
2019-04-26T18:45:51.106Z,9.50
2019-04-26T18:46:51.076Z,8.00
2019-04-26T18:48:00.965Z,8.60
2019-04-26T18:48:53.476Z,11.60
2019-04-26T18:49:53.592Z,9.60
2019-04-26T18:50:52.044Z,10.10
2019-04-26T18:51:51.016Z,14.10
2019-04-26T18:52:52.610Z,10.60
2019-04-26T18:53:51.195Z,8.70
2019-04-26T18:54:51.644Z,11.00
2019-04-26T18:55:50.972Z,8.10
2019-04-26T18:56:50.976Z,9.20
2019-04-26T18:57:56.344Z,8.80
2019-04-26T18:58:51.944Z,11.10
2019-04-26T18:59:52.808Z,12.10
2019-04-26T19:00:50.922Z,11.60
2019-04-26T19:01:50.924Z,7.90
2019-04-26T19:02:54.357Z,8.60
2019-04-26T19:03:51.577Z,10.70
2019-04-26T19:04:50.890Z,12.90
2019-04-26T19:05:50.932Z,8.70
2019-04-26T19:06:51.154Z,11.70
2019-04-26T19:07:51.611Z,10.40
2019-04-26T19:08:57.615Z,13.20
2019-04-26T19:10:02.937Z,11.80
2019-04-26T19:10:59.185Z,12.90
2019-04-26T19:11:52.829Z,13.00
2019-04-26T19:12:52.253Z,14.20
2019-04-26T19:13:51.553Z,15.90
2019-04-26T19:15:02.461Z,18.80
2019-04-26T19:15:51.765Z,14.90
2019-04-26T19:16:56.740Z,15.90
2019-04-26T19:17:52.196Z,16.40
2019-04-26T19:18:51.764Z,16.10
2019-04-26T19:19:57.536Z,18.20
2019-04-26T19:20:50.813Z,16.60
2019-04-26T19:21:53.054Z,16.70
2019-04-26T19:22:53.207Z,16.90
2019-04-26T19:23:51.911Z,15.90
2019-04-26T19:24:55.871Z,17.20
2019-04-26T19:25:52.078Z,17.70
2019-04-26T19:26:51.920Z,20.60
2019-04-26T19:27:53.878Z,18.60
2019-04-26T19:28:52.918Z,18.90
2019-04-26T19:29:51.801Z,19.50
2019-04-26T19:30:52.998Z,19.80
2019-04-26T19:31:52.237Z,19.50
2019-04-26T19:32:51.986Z,21.30
2019-04-26T19:33:51.700Z,19.60
2019-04-26T19:34:52.359Z,20.30
2019-04-26T19:35:50.580Z,19.50
2019-04-26T19:36:52.360Z,19.40
2019-04-26T19:37:51.795Z,19.40
2019-04-26T19:38:51.372Z,19.60
2019-04-26T19:39:50.649Z,19.70
2019-04-26T19:40:52.026Z,18.40
2019-04-26T19:41:52.012Z,18.30
2019-04-26T19:42:57.182Z,18.80
2019-04-26T19:43:52.138Z,19.50
2019-04-26T19:45:10.228Z,18.90
2019-04-26T19:45:51.992Z,18.80
2019-04-26T19:46:53.644Z,18.30
2019-04-26T19:47:52.065Z,19.10
2019-04-26T19:48:55.294Z,17.70
2019-04-26T19:49:53.724Z,17.90
2019-04-26T19:50:50.625Z,20.40
2019-04-26T19:51:52.061Z,21.50
2019-04-26T19:52:51.717Z,18.50
2019-04-26T19:53:51.672Z,17.80
2019-04-26T19:54:51.264Z,17.90
2019-04-26T19:55:51.466Z,18.30
2019-04-26T19:56:51.332Z,18.50
2019-04-26T19:57:51.819Z,18.70
2019-04-26T19:58:57.282Z,18.50
2019-04-26T19:59:52.571Z,19.50
2019-04-26T20:00:50.304Z,17.40
2019-04-26T20:01:55.173Z,17.20
2019-04-26T20:02:52.333Z,17.20
2019-04-26T20:03:53.754Z,19.40
2019-04-26T20:04:51.467Z,20.00
2019-04-26T20:05:50.231Z,19.90
2019-04-26T20:06:54.092Z,20.00
2019-04-26T20:07:51.801Z,19.20
2019-04-26T20:08:51.876Z,19.00
2019-04-26T20:09:50.237Z,19.20
2019-04-26T20:10:51.970Z,19.70
2019-04-26T20:11:51.288Z,20.40
2019-04-26T20:12:52.731Z,19.20
2019-04-26T20:13:51.898Z,21.80
2019-04-26T20:14:53.370Z,20.80
2019-04-26T20:15:53.067Z,22.10
2019-04-26T20:16:52.131Z,19.80
2019-04-26T20:17:58.898Z,20.30
2019-04-26T20:18:52.329Z,19.60
2019-04-26T20:19:53.929Z,20.40
2019-04-26T20:20:52.017Z,19.40
2019-04-26T20:21:51.201Z,20.20
2019-04-26T20:22:51.470Z,19.90
2019-04-26T20:23:52.684Z,20.90
2019-04-26T20:24:53.806Z,23.10
2019-04-26T20:25:52.870Z,19.30
2019-04-26T20:26:49.988Z,21.00
2019-04-26T20:27:53.803Z,21.20
2019-04-26T20:28:51.436Z,21.40
2019-04-26T20:29:51.561Z,21.10
2019-04-26T20:30:51.502Z,21.20
2019-04-26T20:31:51.933Z,19.60
2019-04-26T20:32:52.449Z,21.00
2019-04-26T20:33:50.951Z,22.70
2019-04-26T20:34:50.269Z,22.40
2019-04-26T20:35:51.445Z,22.00
2019-04-26T20:36:49.929Z,22.50
2019-04-26T20:37:49.860Z,21.80
2019-04-26T20:38:49.993Z,21.80
2019-04-26T20:39:54.599Z,21.80
2019-04-26T20:40:53.366Z,22.70
2019-04-26T20:42:00.507Z,20.20
2019-04-26T20:42:51.234Z,22.00
2019-04-26T20:44:03.066Z,20.80
2019-04-26T20:44:53.695Z,22.00
2019-04-26T20:46:08.845Z,21.10
2019-04-26T20:46:51.952Z,20.30
2019-04-26T20:47:52.040Z,21.40
2019-04-26T20:48:52.028Z,21.70
2019-04-26T20:50:51.995Z,22.00
2019-04-26T20:51:49.722Z,22.90
2019-04-26T20:52:55.508Z,22.50
2019-04-26T20:53:50.702Z,23.80
2019-04-26T20:54:52.629Z,23.30
2019-04-26T20:55:49.669Z,22.90
2019-04-26T20:56:52.570Z,22.50
2019-04-26T20:57:51.946Z,21.20
2019-04-26T20:58:49.650Z,22.30
2019-04-26T20:59:52.664Z,23.40
2019-04-26T21:00:54.638Z,23.10
2019-04-26T21:02:02.710Z,24.90
2019-04-26T21:02:54.166Z,23.00
2019-04-26T21:03:51.763Z,23.10
2019-04-26T21:04:51.368Z,21.50
2019-04-26T21:05:53.072Z,21.70
2019-04-26T21:06:51.761Z,25.50
2019-04-26T21:07:50.944Z,24.10
2019-04-26T21:08:49.551Z,21.50
2019-04-26T21:09:49.510Z,23.10
2019-04-26T21:10:49.504Z,23.10
2019-04-26T21:11:51.235Z,21.90
2019-04-26T21:12:52.254Z,23.50
2019-04-26T21:13:51.957Z,22.80
2019-04-26T21:14:49.475Z,22.80
2019-04-26T21:15:57.751Z,23.20
2019-04-26T21:16:50.624Z,22.20
2019-04-26T21:17:49.457Z,23.20
2019-04-26T21:18:49.832Z,21.90
2019-04-26T21:19:49.972Z,22.10
2019-04-26T21:20:49.399Z,22.70
2019-04-26T21:21:50.406Z,24.20
2019-04-26T21:22:49.418Z,23.70
2019-04-26T21:23:49.357Z,24.30
2019-04-26T21:24:50.803Z,24.50
2019-04-26T21:25:52.326Z,24.20
2019-04-26T21:26:52.764Z,23.00
2019-04-26T21:27:51.731Z,27.30
2019-04-26T21:28:49.389Z,25.30
2019-04-26T21:29:52.395Z,23.40
2019-04-26T21:30:51.590Z,25.60
2019-04-26T21:31:49.289Z,24.80
2019-04-26T21:32:51.459Z,28.40
2019-04-26T21:33:50.281Z,25.50
2019-04-26T21:34:50.688Z,23.60
2019-04-26T21:35:49.337Z,24.50
2019-04-26T21:36:49.294Z,25.10
2019-04-26T21:37:53.180Z,29.60
2019-04-26T21:38:50.569Z,29.20
2019-04-26T21:39:49.270Z,27.50
2019-04-26T21:40:49.241Z,29.10
2019-04-26T21:41:49.171Z,28.20
2019-04-26T21:42:49.157Z,25.50
2019-04-26T21:43:49.151Z,28.20
2019-04-26T21:44:52.407Z,25.10
2019-04-26T21:45:49.197Z,25.50
2019-04-26T21:46:49.507Z,27.60
2019-04-26T21:47:49.092Z,24.20
2019-04-26T21:48:49.104Z,26.10
2019-04-26T21:49:52.695Z,25.60
2019-04-26T21:50:50.069Z,25.00
2019-04-26T21:51:52.091Z,28.00
2019-04-26T21:52:49.050Z,27.10
2019-04-26T21:53:49.055Z,25.10
2019-04-26T21:54:53.137Z,25.90
2019-04-26T21:55:49.998Z,26.00
2019-04-26T21:56:49.864Z,25.60
2019-04-26T21:57:48.979Z,25.90
2019-04-26T21:58:48.982Z,26.20
2019-04-26T21:59:48.977Z,27.30
2019-04-26T22:00:48.955Z,25.60
2019-04-26T22:01:52.669Z,24.80
2019-04-26T22:02:49.934Z,25.70
2019-04-26T22:03:54.341Z,25.60
2019-04-26T22:04:49.918Z,25.80
2019-04-26T22:05:49.969Z,28.00
2019-04-26T22:06:48.921Z,26.20
2019-04-26T22:07:48.864Z,27.90
2019-04-26T22:08:48.857Z,25.00
2019-04-26T22:09:48.880Z,24.30
2019-04-26T22:10:48.836Z,23.90
2019-04-26T22:11:49.518Z,25.80
2019-04-26T22:12:48.828Z,24.30
2019-04-26T22:13:48.805Z,25.40
2019-04-26T22:14:50.802Z,24.40
2019-04-26T22:15:49.793Z,23.20
2019-04-26T22:16:48.768Z,23.20
2019-04-26T22:17:48.767Z,23.70
2019-04-26T22:18:50.479Z,26.00
2019-04-26T22:19:49.770Z,24.20
2019-04-26T22:20:52.152Z,23.70
2019-04-26T22:21:48.728Z,30.90
2019-04-26T22:22:48.704Z,30.00
2019-04-26T22:23:51.696Z,31.90
2019-04-26T22:24:48.684Z,25.70
2019-04-26T22:25:48.685Z,27.70
2019-04-26T22:26:48.686Z,26.80
2019-04-26T22:27:48.648Z,23.60
2019-04-26T22:28:48.646Z,24.10
2019-04-26T22:29:51.784Z,24.40
2019-04-26T22:30:48.608Z,25.90
2019-04-26T22:31:48.601Z,23.10
2019-04-26T22:32:52.563Z,26.80
2019-04-26T22:33:49.596Z,24.50
2019-04-26T22:34:48.592Z,24.40
2019-04-26T22:35:50.497Z,26.30
2019-04-26T22:36:49.550Z,24.90
2019-04-26T22:37:48.550Z,25.80
2019-04-26T22:38:48.544Z,25.70
2019-04-26T22:39:48.521Z,23.70
2019-04-26T22:40:52.562Z,24.60
2019-04-26T22:41:49.487Z,24.50
2019-04-26T22:42:48.484Z,22.70
2019-04-26T22:43:49.626Z,24.20
2019-04-26T22:44:49.462Z,24.80
2019-04-26T22:45:48.452Z,23.50
2019-04-26T22:46:49.549Z,23.90
2019-04-26T22:47:48.430Z,26.40
2019-04-26T22:48:48.416Z,25.80
2019-04-26T22:49:48.409Z,26.20
2019-04-26T22:50:52.025Z,27.00
2019-04-26T22:51:49.408Z,24.50
2019-04-26T22:52:51.497Z,24.90
2019-04-26T22:53:48.364Z,24.10
2019-04-26T22:54:48.349Z,24.00
2019-04-26T22:55:48.371Z,29.50
2019-04-26T22:56:48.333Z,27.50
2019-04-26T22:57:49.544Z,23.70
2019-04-26T22:58:48.318Z,26.40
2019-04-26T22:59:50.490Z,25.00
2019-04-26T23:00:48.293Z,24.90
2019-04-26T23:01:48.958Z,24.80
2019-04-26T23:02:48.271Z,23.40
2019-04-26T23:03:48.268Z,24.80
2019-04-26T23:04:48.251Z,24.80
2019-04-26T23:05:48.236Z,25.60
2019-04-26T23:06:48.301Z,26.10
2019-04-26T23:07:48.228Z,23.10
2019-04-26T23:08:48.207Z,25.10
2019-04-26T23:09:51.994Z,24.30
2019-04-26T23:10:49.187Z,24.80
2019-04-26T23:11:48.172Z,24.50
2019-04-26T23:12:48.170Z,24.90
2019-04-26T23:13:48.162Z,24.50
2019-04-26T23:14:51.396Z,25.90
2019-04-26T23:15:48.131Z,23.30
2019-04-26T23:17:01.622Z,24.00
2019-04-26T23:17:49.116Z,24.50
2019-04-26T23:18:48.099Z,24.10
2019-04-26T23:19:49.497Z,27.30
2019-04-26T23:20:49.083Z,28.30
2019-04-26T23:21:52.806Z,25.90
2019-04-26T23:22:49.077Z,26.90
2019-04-26T23:23:48.041Z,26.50
2019-04-26T23:24:49.257Z,24.40
2019-04-26T23:25:49.018Z,25.20
2019-04-26T23:26:48.028Z,23.50
2019-04-26T23:27:50.453Z,25.20
2019-04-26T23:28:49.013Z,24.10
2019-04-26T23:29:49.800Z,25.60
2019-04-26T23:30:48.962Z,24.00
2019-04-26T23:31:47.956Z,24.90
2019-04-26T23:32:48.642Z,26.40
2019-04-26T23:33:47.938Z,24.70
2019-04-26T23:34:47.922Z,26.70
2019-04-26T23:35:47.973Z,24.60
2019-04-26T23:36:49.119Z,24.80
2019-04-26T23:37:47.906Z,22.80
2019-04-26T23:38:47.877Z,23.30
2019-04-26T23:39:49.448Z,24.50
2019-04-26T23:40:47.856Z,23.20
2019-04-26T23:41:47.844Z,21.80
2019-04-26T23:42:51.542Z,22.80
2019-04-26T23:43:47.847Z,25.20
2019-04-26T23:44:47.819Z,25.30
2019-04-26T23:45:48.501Z,22.70
2019-04-26T23:46:47.788Z,25.50
2019-04-26T23:47:47.770Z,23.20
2019-04-26T23:48:49.550Z,23.40
2019-04-26T23:49:49.342Z,23.00
2019-04-26T23:50:47.750Z,21.10
2019-04-26T23:51:47.730Z,23.50
2019-04-26T23:52:49.147Z,22.10
2019-04-26T23:53:50.530Z,24.50
2019-04-26T23:54:47.690Z,20.80
2019-04-26T23:55:47.697Z,22.30
2019-04-26T23:56:47.672Z,23.50
2019-04-26T23:57:47.670Z,20.60
2019-04-26T23:58:47.654Z,21.10
2019-04-26T23:59:51.075Z,22.50
